Archival Weather

Pemba

Pemba, Mozambique (FQPB)

Report from: Saturday, April 1, 2023 9:00 PM CAT
Current time: Wednesday, April 24, 2024 8:17 PM CAT

Current weather – Weather history – Daily summaries
Weather forecast

Temperature25.0°C (77.0°F)
Dew point23.0°C (73.4°F)
Winds 8 kts (4.1 m/s, 9.2 mph) South (170°)
Visibility6.2 mi. (10 km)
Clouds Ceiling: Broken clouds 0 ft. (0 m)
Few clouds 2,000 ft. (610 m)
Few clouds with cumulonimbus 2,500 ft. (762 m)
Altimeter29.94 in.Hg (1014 mB)
Relative humidity89 %
Density altitude1,510 ft. (460 m)
Flight conditions Low Instrument Meteorological Conditions
Raw dataFQPB 011900Z 17008KT 9999 FEW020 FEW025CB BKN/// 25/23 Q1014
An error has occurred. This application may no longer respond until reloaded. Reload 🗙